EWG5Z EDDH-EDDS
Flight info
| Callsign | EWG5Z |
|---|---|
| Flight time | 1h 3m |
| Altitude | 33000 |
| Route | IDEKO7G IDEKO N850 NIE DCT BERXO DCT SILWE DCT OSBIT P605 TOSTU T726 LBU |
| Aircraft | A320/M-SDE3FGHIRWY/LB1 |
Departure
| Time | 2026-04-26 15:43 |
|---|---|
| Airport | Hamburg Helmut Schmidt Airport (EDDH) |
Arrival
| Time | 2026-04-26 16:46 |
|---|---|
| Airport | Stuttgart Airport (EDDS) |
| Time | Latitude | Longitude | Altitude | Speed | Heading |
|---|---|---|---|---|---|
| 2026-04-26 15:10 | 53.63169 | 10.00365 | 51 ft | 0 kts | 87° |
| 2026-04-26 15:33 | 53.63169 | 10.00363 | 51 ft | 2 kts | 87° |
| 2026-04-26 15:33 | 53.63168 | 10.00320 | 51 ft | 4 kts | 86° |
| 2026-04-26 15:34 | 53.63166 | 10.00284 | 51 ft | 4 kts | 94° |
| 2026-04-26 15:34 | 53.63174 | 10.00253 | 46 ft | 4 kts | 165° |
| 2026-04-26 15:34 | 53.63191 | 10.00249 | 51 ft | 0 kts | 176° |
| 2026-04-26 15:37 | 53.63191 | 10.00250 | 51 ft | 0 kts | 176° |
| 2026-04-26 15:38 | 53.63151 | 10.00255 | 46 ft | 11 kts | 175° |
| 2026-04-26 15:38 | 53.63072 | 10.00257 | 51 ft | 11 kts | 195° |
| 2026-04-26 15:38 | 53.63001 | 10.00190 | 51 ft | 12 kts | 211° |
| 2026-04-26 15:38 | 53.62925 | 10.00109 | 50 ft | 12 kts | 212° |
| 2026-04-26 15:39 | 53.62870 | 10.00040 | 50 ft | 9 kts | 230° |
| 2026-04-26 15:39 | 53.62844 | 9.99963 | 50 ft | 0 kts | 243° |
| 2026-04-26 15:41 | 53.62840 | 9.99948 | 50 ft | 8 kts | 243° |
| 2026-04-26 15:41 | 53.62809 | 9.99828 | 45 ft | 13 kts | 267° |
| 2026-04-26 15:41 | 53.62844 | 9.99762 | 49 ft | 0 kts | 330° |
| 2026-04-26 15:42 | 53.62851 | 9.99756 | 49 ft | 8 kts | 331° |
| 2026-04-26 15:42 | 53.63136 | 9.99508 | 50 ft | 82 kts | 333° |
| 2026-04-26 15:43 | 53.63826 | 9.98913 | 47 ft | 140 kts | 333° |
| 2026-04-26 15:43 | 53.64814 | 9.98041 | 222 ft | 169 kts | 330° |
| 2026-04-26 15:43 | 53.66926 | 9.96261 | 1570 ft | 177 kts | 332° |
| 2026-04-26 15:44 | 53.68090 | 9.95265 | 1923 ft | 199 kts | 332° |
| 2026-04-26 15:44 | 53.70662 | 9.92972 | 3185 ft | 213 kts | 321° |
| 2026-04-26 15:44 | 53.71456 | 9.90931 | 3900 ft | 213 kts | 281° |
| 2026-04-26 15:45 | 53.70842 | 9.85755 | 4953 ft | 244 kts | 252° |
| 2026-04-26 15:45 | 53.70265 | 9.82944 | 5554 ft | 258 kts | 251° |
| 2026-04-26 15:46 | 53.69066 | 9.77127 | 7262 ft | 266 kts | 252° |
| 2026-04-26 15:46 | 53.68463 | 9.74151 | 8078 ft | 270 kts | 253° |
| 2026-04-26 15:46 | 53.67860 | 9.71129 | 8899 ft | 274 kts | 254° |
| 2026-04-26 15:46 | 53.67458 | 9.69100 | 9445 ft | 276 kts | 255° |
| 2026-04-26 15:47 | 53.66639 | 9.64946 | 10487 ft | 282 kts | 255° |
| 2026-04-26 15:47 | 53.64045 | 9.59326 | 11073 ft | 337 kts | 216° |
| 2026-04-26 15:47 | 53.61899 | 9.57582 | 11267 ft | 348 kts | 200° |
| 2026-04-26 15:48 | 53.59545 | 9.56830 | 11298 ft | 351 kts | 188° |
| 2026-04-26 15:48 | 53.57115 | 9.56366 | 11300 ft | 351 kts | 189° |
| 2026-04-26 15:48 | 53.54694 | 9.55885 | 11300 ft | 351 kts | 189° |
| 2026-04-26 15:48 | 53.52273 | 9.55397 | 11299 ft | 350 kts | 189° |
| 2026-04-26 15:49 | 53.49850 | 9.54908 | 11299 ft | 351 kts | 189° |
| 2026-04-26 15:49 | 53.47427 | 9.54423 | 11300 ft | 351 kts | 189° |
| 2026-04-26 15:49 | 53.45007 | 9.53944 | 11299 ft | 350 kts | 189° |
| 2026-04-26 15:49 | 53.42573 | 9.53462 | 11491 ft | 356 kts | 189° |
| 2026-04-26 15:50 | 53.40105 | 9.52976 | 12333 ft | 356 kts | 189° |
| 2026-04-26 15:50 | 53.37636 | 9.52489 | 13106 ft | 359 kts | 189° |
| 2026-04-26 15:50 | 53.35146 | 9.51995 | 13849 ft | 361 kts | 189° |
| 2026-04-26 15:50 | 53.32636 | 9.51499 | 14540 ft | 364 kts | 189° |
| 2026-04-26 15:51 | 53.30109 | 9.51004 | 15188 ft | 367 kts | 189° |
| 2026-04-26 15:51 | 53.27563 | 9.50508 | 15830 ft | 370 kts | 189° |
| 2026-04-26 15:51 | 53.25002 | 9.50011 | 16459 ft | 372 kts | 190° |
| 2026-04-26 15:51 | 53.22414 | 9.49509 | 17081 ft | 375 kts | 190° |
| 2026-04-26 15:52 | 53.19807 | 9.49002 | 17705 ft | 378 kts | 190° |
| 2026-04-26 15:52 | 53.17182 | 9.48491 | 18316 ft | 382 kts | 190° |
| 2026-04-26 15:52 | 53.14529 | 9.47973 | 18880 ft | 385 kts | 190° |
| 2026-04-26 15:52 | 53.12758 | 9.47628 | 19230 ft | 387 kts | 190° |
| 2026-04-26 15:53 | 53.09202 | 9.46932 | 19931 ft | 391 kts | 190° |
| 2026-04-26 15:53 | 53.06492 | 9.46403 | 20459 ft | 394 kts | 190° |
| 2026-04-26 15:53 | 53.03759 | 9.45871 | 20987 ft | 397 kts | 190° |
| 2026-04-26 15:53 | 53.01007 | 9.45339 | 21510 ft | 400 kts | 190° |
| 2026-04-26 15:54 | 52.98232 | 9.44802 | 22034 ft | 403 kts | 191° |
| 2026-04-26 15:54 | 52.95444 | 9.44235 | 22552 ft | 406 kts | 191° |
| 2026-04-26 15:54 | 52.92632 | 9.43636 | 23057 ft | 409 kts | 191° |
| 2026-04-26 15:54 | 52.89801 | 9.43019 | 23548 ft | 412 kts | 191° |
| 2026-04-26 15:55 | 52.86950 | 9.42398 | 23977 ft | 415 kts | 191° |
| 2026-04-26 15:55 | 52.84084 | 9.41776 | 24394 ft | 417 kts | 191° |
| 2026-04-26 15:55 | 52.81200 | 9.41155 | 24796 ft | 419 kts | 191° |
| 2026-04-26 15:55 | 52.78279 | 9.40530 | 25192 ft | 421 kts | 191° |
| 2026-04-26 15:56 | 52.75383 | 9.39915 | 25575 ft | 423 kts | 191° |
| 2026-04-26 15:56 | 52.72443 | 9.39293 | 25953 ft | 425 kts | 191° |
| 2026-04-26 15:56 | 52.69503 | 9.38669 | 26321 ft | 427 kts | 191° |
| 2026-04-26 15:56 | 52.66549 | 9.38043 | 26682 ft | 429 kts | 191° |
| 2026-04-26 15:57 | 52.63550 | 9.37644 | 27018 ft | 435 kts | 184° |
| 2026-04-26 15:57 | 52.60511 | 9.38042 | 27383 ft | 441 kts | 174° |
| 2026-04-26 15:57 | 52.57501 | 9.39121 | 27741 ft | 445 kts | 170° |
| 2026-04-26 15:57 | 52.55493 | 9.39886 | 27988 ft | 446 kts | 170° |
| 2026-04-26 15:58 | 52.51471 | 9.41400 | 28464 ft | 449 kts | 171° |
| 2026-04-26 15:58 | 52.48416 | 9.42538 | 28787 ft | 451 kts | 171° |
| 2026-04-26 15:58 | 52.45341 | 9.43676 | 29102 ft | 453 kts | 171° |
| 2026-04-26 15:58 | 52.42253 | 9.44819 | 29410 ft | 455 kts | 171° |
| 2026-04-26 15:59 | 52.39162 | 9.45968 | 29709 ft | 457 kts | 171° |
| 2026-04-26 15:59 | 52.36052 | 9.47126 | 30012 ft | 458 kts | 171° |
| 2026-04-26 15:59 | 52.32931 | 9.48284 | 30321 ft | 459 kts | 171° |
| 2026-04-26 15:59 | 52.29812 | 9.49437 | 30559 ft | 461 kts | 171° |
| 2026-04-26 16:00 | 52.26677 | 9.50594 | 30783 ft | 463 kts | 171° |
| 2026-04-26 16:00 | 52.23568 | 9.51740 | 31014 ft | 464 kts | 171° |
| 2026-04-26 16:00 | 52.20410 | 9.52903 | 31221 ft | 466 kts | 171° |
| 2026-04-26 16:00 | 52.17247 | 9.54068 | 31451 ft | 467 kts | 171° |
| 2026-04-26 16:01 | 52.14079 | 9.55236 | 31756 ft | 466 kts | 171° |
| 2026-04-26 16:01 | 52.10920 | 9.56399 | 32072 ft | 464 kts | 171° |
| 2026-04-26 16:01 | 52.07770 | 9.57558 | 32380 ft | 463 kts | 171° |
| 2026-04-26 16:01 | 52.04630 | 9.58712 | 32672 ft | 463 kts | 171° |
| 2026-04-26 16:02 | 52.01492 | 9.59859 | 32949 ft | 462 kts | 171° |
| 2026-04-26 16:02 | 51.98359 | 9.61002 | 33214 ft | 462 kts | 171° |
| 2026-04-26 16:02 | 51.95214 | 9.62147 | 33300 ft | 457 kts | 171° |
| 2026-04-26 16:03 | 51.89119 | 9.64377 | 33305 ft | 450 kts | 171° |
| 2026-04-26 16:03 | 51.83023 | 9.66588 | 33303 ft | 449 kts | 171° |
| 2026-04-26 16:04 | 51.76916 | 9.68794 | 33301 ft | 448 kts | 171° |
| 2026-04-26 16:04 | 51.70821 | 9.70997 | 33306 ft | 448 kts | 171° |
| 2026-04-26 16:05 | 51.64740 | 9.73193 | 33306 ft | 448 kts | 171° |
| 2026-04-26 16:05 | 51.58662 | 9.75380 | 33280 ft | 447 kts | 170° |
| 2026-04-26 16:06 | 51.52586 | 9.77549 | 33280 ft | 447 kts | 170° |
| 2026-04-26 16:06 | 51.46519 | 9.79709 | 33276 ft | 446 kts | 170° |
| 2026-04-26 16:07 | 51.40447 | 9.81862 | 33274 ft | 446 kts | 170° |
| 2026-04-26 16:07 | 51.34421 | 9.84006 | 33264 ft | 447 kts | 170° |
| 2026-04-26 16:08 | 51.28307 | 9.86173 | 33265 ft | 447 kts | 170° |
| 2026-04-26 16:08 | 51.22207 | 9.87953 | 33265 ft | 444 kts | 179° |
| 2026-04-26 16:09 | 51.17101 | 9.87757 | 33266 ft | 441 kts | 186° |
| 2026-04-26 16:09 | 51.10967 | 9.87205 | 33253 ft | 442 kts | 186° |
| 2026-04-26 16:10 | 51.03814 | 9.86578 | 33267 ft | 443 kts | 186° |
| 2026-04-26 16:10 | 50.98651 | 9.86131 | 33262 ft | 443 kts | 186° |
| 2026-04-26 16:11 | 50.92485 | 9.85590 | 33262 ft | 443 kts | 186° |
| 2026-04-26 16:11 | 50.86359 | 9.85056 | 33256 ft | 443 kts | 185° |
| 2026-04-26 16:12 | 50.80189 | 9.84523 | 33259 ft | 443 kts | 185° |
| 2026-04-26 16:12 | 50.70939 | 9.83730 | 33258 ft | 444 kts | 185° |
| 2026-04-26 16:13 | 50.64777 | 9.83203 | 33268 ft | 444 kts | 185° |
| 2026-04-26 16:13 | 50.58621 | 9.82675 | 33280 ft | 442 kts | 185° |
| 2026-04-26 16:14 | 50.52473 | 9.82142 | 33276 ft | 441 kts | 185° |
| 2026-04-26 16:15 | 50.43279 | 9.81356 | 33265 ft | 440 kts | 185° |
| 2026-04-26 16:15 | 50.37197 | 9.80845 | 33263 ft | 440 kts | 185° |
| 2026-04-26 16:16 | 50.31083 | 9.80332 | 32841 ft | 436 kts | 185° |
| 2026-04-26 16:16 | 50.28067 | 9.80077 | 32310 ft | 432 kts | 185° |
| 2026-04-26 16:16 | 50.25082 | 9.79826 | 31807 ft | 427 kts | 185° |
| 2026-04-26 16:16 | 50.22127 | 9.79576 | 31314 ft | 422 kts | 186° |
| 2026-04-26 16:17 | 50.19208 | 9.79326 | 30830 ft | 419 kts | 185° |
| 2026-04-26 16:17 | 50.16314 | 9.79081 | 30362 ft | 414 kts | 185° |
| 2026-04-26 16:17 | 50.13433 | 9.78841 | 29578 ft | 416 kts | 185° |
| 2026-04-26 16:17 | 50.10538 | 9.78598 | 28883 ft | 415 kts | 185° |
| 2026-04-26 16:18 | 50.07661 | 9.78364 | 28277 ft | 413 kts | 184° |
| 2026-04-26 16:18 | 50.01929 | 9.78633 | 27140 ft | 410 kts | 180° |
| 2026-04-26 16:19 | 49.96298 | 9.79005 | 26082 ft | 404 kts | 180° |
| 2026-04-26 16:19 | 49.93463 | 9.79186 | 25577 ft | 401 kts | 180° |
| 2026-04-26 16:19 | 49.87950 | 9.79537 | 24616 ft | 397 kts | 180° |
| 2026-04-26 16:20 | 49.85200 | 9.79714 | 24150 ft | 394 kts | 180° |
| 2026-04-26 16:20 | 49.79755 | 9.80059 | 23153 ft | 389 kts | 180° |
| 2026-04-26 16:20 | 49.77054 | 9.80229 | 22664 ft | 386 kts | 180° |
| 2026-04-26 16:21 | 49.74383 | 9.80398 | 22220 ft | 382 kts | 180° |
| 2026-04-26 16:21 | 49.71733 | 9.80568 | 21749 ft | 379 kts | 180° |
| 2026-04-26 16:21 | 49.69109 | 9.80727 | 21287 ft | 376 kts | 180° |
| 2026-04-26 16:21 | 49.66488 | 9.80856 | 20834 ft | 373 kts | 180° |
| 2026-04-26 16:22 | 49.63898 | 9.80968 | 20394 ft | 371 kts | 180° |
| 2026-04-26 16:22 | 49.61327 | 9.81086 | 19954 ft | 369 kts | 178° |
| 2026-04-26 16:22 | 49.58787 | 9.81622 | 19522 ft | 367 kts | 172° |
| 2026-04-26 16:22 | 49.56277 | 9.82307 | 19098 ft | 365 kts | 172° |
| 2026-04-26 16:23 | 49.53787 | 9.82995 | 18684 ft | 362 kts | 171° |
| 2026-04-26 16:23 | 49.51314 | 9.83687 | 18252 ft | 360 kts | 171° |
| 2026-04-26 16:23 | 49.48856 | 9.84376 | 17789 ft | 358 kts | 171° |
| 2026-04-26 16:23 | 49.46447 | 9.85050 | 17341 ft | 356 kts | 171° |
| 2026-04-26 16:24 | 49.44019 | 9.85725 | 16897 ft | 354 kts | 171° |
| 2026-04-26 16:24 | 49.41595 | 9.86395 | 16477 ft | 352 kts | 171° |
| 2026-04-26 16:24 | 49.39187 | 9.87054 | 16054 ft | 350 kts | 171° |
| 2026-04-26 16:24 | 49.36793 | 9.87707 | 15638 ft | 348 kts | 171° |
| 2026-04-26 16:25 | 49.34410 | 9.88358 | 15227 ft | 347 kts | 171° |
| 2026-04-26 16:25 | 49.32042 | 9.89011 | 14808 ft | 345 kts | 171° |
| 2026-04-26 16:25 | 49.29681 | 9.89665 | 14462 ft | 342 kts | 171° |
| 2026-04-26 16:25 | 49.27352 | 9.90307 | 14178 ft | 336 kts | 171° |
| 2026-04-26 16:26 | 49.25086 | 9.90928 | 14057 ft | 326 kts | 171° |
| 2026-04-26 16:26 | 49.23620 | 9.91328 | 13968 ft | 319 kts | 171° |
| 2026-04-26 16:26 | 49.20735 | 9.91933 | 13703 ft | 308 kts | 183° |
| 2026-04-26 16:26 | 49.18660 | 9.91375 | 13384 ft | 301 kts | 202° |
| 2026-04-26 16:27 | 49.16850 | 9.89843 | 13022 ft | 297 kts | 221° |
| 2026-04-26 16:27 | 49.15476 | 9.87541 | 12660 ft | 292 kts | 239° |
| 2026-04-26 16:27 | 49.14639 | 9.84771 | 12461 ft | 284 kts | 251° |
| 2026-04-26 16:27 | 49.13973 | 9.81962 | 12208 ft | 280 kts | 251° |
| 2026-04-26 16:28 | 49.13304 | 9.79182 | 11890 ft | 278 kts | 251° |
| 2026-04-26 16:28 | 49.12636 | 9.76424 | 11578 ft | 276 kts | 251° |
| 2026-04-26 16:28 | 49.11970 | 9.73680 | 11245 ft | 275 kts | 251° |
| 2026-04-26 16:28 | 49.11304 | 9.70951 | 10922 ft | 273 kts | 251° |
| 2026-04-26 16:29 | 49.10643 | 9.68239 | 10602 ft | 272 kts | 251° |
| 2026-04-26 16:29 | 49.09989 | 9.65549 | 10277 ft | 270 kts | 251° |
| 2026-04-26 16:29 | 49.09336 | 9.62864 | 9922 ft | 269 kts | 251° |
| 2026-04-26 16:29 | 49.08692 | 9.60222 | 9558 ft | 268 kts | 251° |
| 2026-04-26 16:30 | 49.08046 | 9.57573 | 9202 ft | 266 kts | 251° |
| 2026-04-26 16:30 | 49.07402 | 9.54932 | 8854 ft | 265 kts | 251° |
| 2026-04-26 16:30 | 49.06761 | 9.52306 | 8489 ft | 264 kts | 251° |
| 2026-04-26 16:30 | 49.06123 | 9.49689 | 8082 ft | 264 kts | 251° |
| 2026-04-26 16:31 | 49.05338 | 9.47177 | 7705 ft | 264 kts | 237° |
| 2026-04-26 16:31 | 49.04151 | 9.45052 | 7327 ft | 264 kts | 223° |
| 2026-04-26 16:31 | 49.02641 | 9.43452 | 6949 ft | 266 kts | 209° |
| 2026-04-26 16:31 | 49.01017 | 9.42118 | 6585 ft | 265 kts | 210° |
| 2026-04-26 16:32 | 48.99405 | 9.40780 | 6163 ft | 264 kts | 211° |
| 2026-04-26 16:32 | 48.98317 | 9.39873 | 5908 ft | 263 kts | 210° |
| 2026-04-26 16:32 | 48.96204 | 9.38113 | 5417 ft | 261 kts | 210° |
| 2026-04-26 16:32 | 48.94622 | 9.36795 | 5211 ft | 258 kts | 210° |
| 2026-04-26 16:33 | 48.93044 | 9.35480 | 5211 ft | 260 kts | 210° |
| 2026-04-26 16:33 | 48.91474 | 9.34110 | 5211 ft | 261 kts | 215° |
| 2026-04-26 16:33 | 48.90090 | 9.32328 | 5175 ft | 261 kts | 224° |
| 2026-04-26 16:33 | 48.88793 | 9.30469 | 5047 ft | 253 kts | 224° |
| 2026-04-26 16:34 | 48.87516 | 9.28651 | 4918 ft | 250 kts | 224° |
| 2026-04-26 16:34 | 48.86243 | 9.26850 | 4787 ft | 250 kts | 224° |
| 2026-04-26 16:34 | 48.84971 | 9.25053 | 4659 ft | 249 kts | 223° |
| 2026-04-26 16:34 | 48.83718 | 9.23231 | 4533 ft | 250 kts | 230° |
| 2026-04-26 16:35 | 48.82653 | 9.21146 | 4393 ft | 250 kts | 236° |
| 2026-04-26 16:35 | 48.81662 | 9.18963 | 4275 ft | 252 kts | 236° |
| 2026-04-26 16:35 | 48.80677 | 9.16768 | 4150 ft | 252 kts | 237° |
| 2026-04-26 16:35 | 48.79729 | 9.14542 | 4032 ft | 251 kts | 239° |
| 2026-04-26 16:36 | 48.78794 | 9.12301 | 4008 ft | 251 kts | 238° |
| 2026-04-26 16:36 | 48.77865 | 9.10060 | 4008 ft | 250 kts | 239° |
| 2026-04-26 16:36 | 48.76939 | 9.07826 | 4008 ft | 252 kts | 239° |
| 2026-04-26 16:36 | 48.76006 | 9.05582 | 4008 ft | 251 kts | 238° |
| 2026-04-26 16:37 | 48.75068 | 9.03339 | 4008 ft | 253 kts | 239° |
| 2026-04-26 16:37 | 48.74126 | 9.01094 | 4009 ft | 252 kts | 238° |
| 2026-04-26 16:37 | 48.73196 | 8.98854 | 4013 ft | 252 kts | 239° |
| 2026-04-26 16:37 | 48.72263 | 8.96590 | 3998 ft | 254 kts | 238° |
| 2026-04-26 16:38 | 48.71330 | 8.94299 | 4001 ft | 255 kts | 239° |
| 2026-04-26 16:38 | 48.70396 | 8.92001 | 3998 ft | 256 kts | 239° |
| 2026-04-26 16:38 | 48.69463 | 8.89708 | 4007 ft | 257 kts | 239° |
| 2026-04-26 16:38 | 48.68522 | 8.87406 | 4000 ft | 257 kts | 238° |
| 2026-04-26 16:39 | 48.67586 | 8.85119 | 4000 ft | 254 kts | 239° |
| 2026-04-26 16:39 | 48.66656 | 8.82838 | 4002 ft | 254 kts | 239° |
| 2026-04-26 16:39 | 48.65691 | 8.80614 | 4000 ft | 253 kts | 229° |
| 2026-04-26 16:39 | 48.64272 | 8.79114 | 3997 ft | 252 kts | 197° |
| 2026-04-26 16:40 | 48.62555 | 8.78897 | 3996 ft | 248 kts | 165° |
| 2026-04-26 16:40 | 48.60964 | 8.79831 | 3999 ft | 246 kts | 152° |
| 2026-04-26 16:40 | 48.59538 | 8.81154 | 3996 ft | 242 kts | 133° |
| 2026-04-26 16:40 | 48.58589 | 8.83190 | 3998 ft | 235 kts | 108° |
| 2026-04-26 16:41 | 48.58326 | 8.85556 | 4004 ft | 236 kts | 84° |
| 2026-04-26 16:41 | 48.58805 | 8.88005 | 4003 ft | 251 kts | 58° |
| 2026-04-26 16:41 | 48.59829 | 8.90152 | 3997 ft | 253 kts | 53° |
| 2026-04-26 16:41 | 48.60896 | 8.92291 | 4002 ft | 255 kts | 53° |
| 2026-04-26 16:42 | 48.61958 | 8.94423 | 3998 ft | 248 kts | 52° |
| 2026-04-26 16:42 | 48.62951 | 8.96422 | 3998 ft | 226 kts | 53° |
| 2026-04-26 16:42 | 48.63856 | 8.98245 | 4010 ft | 209 kts | 54° |
| 2026-04-26 16:42 | 48.64630 | 9.00008 | 3970 ft | 195 kts | 65° |
| 2026-04-26 16:43 | 48.65090 | 9.01889 | 3790 ft | 186 kts | 70° |
| 2026-04-26 16:43 | 48.65449 | 9.03689 | 3564 ft | 172 kts | 72° |
| 2026-04-26 16:43 | 48.65775 | 9.05378 | 3335 ft | 163 kts | 72° |
| 2026-04-26 16:43 | 48.66087 | 9.06996 | 3138 ft | 160 kts | 72° |
| 2026-04-26 16:44 | 48.66397 | 9.08613 | 2917 ft | 160 kts | 72° |
| 2026-04-26 16:44 | 48.66705 | 9.10223 | 2696 ft | 161 kts | 73° |
| 2026-04-26 16:44 | 48.67012 | 9.11831 | 2477 ft | 154 kts | 72° |
| 2026-04-26 16:44 | 48.67299 | 9.13335 | 2287 ft | 147 kts | 70° |
| 2026-04-26 16:45 | 48.67581 | 9.14810 | 2085 ft | 146 kts | 70° |
| 2026-04-26 16:45 | 48.67861 | 9.16282 | 1868 ft | 143 kts | 69° |
| 2026-04-26 16:45 | 48.68135 | 9.17717 | 1678 ft | 142 kts | 71° |
| 2026-04-26 16:45 | 48.68408 | 9.19149 | 1500 ft | 141 kts | 70° |
| 2026-04-26 16:46 | 48.68676 | 9.20556 | 1309 ft | 140 kts | 70° |
| 2026-04-26 16:46 | 48.68933 | 9.21876 | 1250 ft | 108 kts | 76° |
| 2026-04-26 16:46 | 48.69090 | 9.22721 | 1222 ft | 59 kts | 75° |
| 2026-04-26 16:46 | 48.69169 | 9.23140 | 1214 ft | 31 kts | 73° |
| 2026-04-26 16:47 | 48.69236 | 9.23444 | 1208 ft | 27 kts | 60° |
| 2026-04-26 16:47 | 48.69314 | 9.23592 | 1204 ft | 12 kts | 46° |
| 2026-04-26 16:47 | 48.69363 | 9.23667 | 1204 ft | 0 kts | 45° |
| 2026-04-26 16:48 | 48.69379 | 9.23691 | 1205 ft | 4 kts | 45° |
| 2026-04-26 16:48 | 48.69410 | 9.23730 | 1206 ft | 7 kts | 32° |
| 2026-04-26 16:48 | 48.69454 | 9.23747 | 1207 ft | 6 kts | 357° |
| 2026-04-26 16:48 | 48.69496 | 9.23719 | 1209 ft | 10 kts | 321° |
| 2026-04-26 16:49 | 48.69516 | 9.23614 | 1213 ft | 12 kts | 261° |
| 2026-04-26 16:49 | 48.69490 | 9.23471 | 1216 ft | 14 kts | 253° |
| 2026-04-26 16:49 | 48.69467 | 9.23352 | 1218 ft | 10 kts | 253° |
| 2026-04-26 16:49 | 48.69451 | 9.23272 | 1220 ft | 7 kts | 253° |
| 2026-04-26 16:50 | 48.69434 | 9.23183 | 1222 ft | 11 kts | 253° |
| 2026-04-26 16:50 | 48.69403 | 9.23011 | 1225 ft | 22 kts | 255° |
| 2026-04-26 16:50 | 48.69361 | 9.22790 | 1230 ft | 22 kts | 253° |
| 2026-04-26 16:50 | 48.69320 | 9.22576 | 1248 ft | 21 kts | 254° |
| 2026-04-26 16:51 | 48.69280 | 9.22369 | 1246 ft | 20 kts | 253° |
| 2026-04-26 16:51 | 48.69241 | 9.22171 | 1246 ft | 20 kts | 255° |
| 2026-04-26 16:51 | 48.69203 | 9.21958 | 1258 ft | 22 kts | 254° |
| 2026-04-26 16:51 | 48.69159 | 9.21728 | 1259 ft | 24 kts | 253° |
| 2026-04-26 16:52 | 48.69112 | 9.21490 | 1264 ft | 23 kts | 253° |
| 2026-04-26 16:52 | 48.69098 | 9.21415 | 1261 ft | 23 kts | 254° |
| 2026-04-26 16:52 | 48.69044 | 9.21115 | 1273 ft | 21 kts | 254° |
| 2026-04-26 16:52 | 48.69004 | 9.20904 | 1274 ft | 20 kts | 253° |
| 2026-04-26 16:53 | 48.68952 | 9.20641 | 1279 ft | 19 kts | 253° |
| 2026-04-26 16:53 | 48.68917 | 9.20459 | 1286 ft | 18 kts | 255° |
| 2026-04-26 16:53 | 48.68894 | 9.20329 | 1288 ft | 20 kts | 255° |
| 2026-04-26 16:53 | 48.68853 | 9.20114 | 1293 ft | 23 kts | 253° |
| 2026-04-26 16:54 | 48.68795 | 9.19944 | 1295 ft | 16 kts | 231° |
| 2026-04-26 16:54 | 48.68748 | 9.19812 | 1297 ft | 12 kts | 253° |
| 2026-04-26 16:54 | 48.68730 | 9.19710 | 1300 ft | 8 kts | 255° |
| 2026-04-26 16:54 | 48.68714 | 9.19626 | 1303 ft | 13 kts | 255° |
| 2026-04-26 16:55 | 48.68681 | 9.19449 | 1308 ft | 19 kts | 253° |
| 2026-04-26 16:55 | 48.68646 | 9.19267 | 1312 ft | 15 kts | 253° |
| 2026-04-26 16:55 | 48.68678 | 9.19163 | 1317 ft | 11 kts | 335° |
| 2026-04-26 16:55 | 48.68748 | 9.19149 | 1318 ft | 11 kts | 27° |
| 2026-04-26 16:56 | 48.68829 | 9.19305 | 1315 ft | 7 kts | 347° |
| 2026-04-26 16:56 | 48.68859 | 9.19293 | 1315 ft | 3 kts | 344° |
| 2026-04-26 16:56 | 48.68868 | 9.19289 | 1315 ft | 0 kts | 344° |